Time;durP1;ratioP1;P1;durP2;ratioP2;P2;SDS_P1;SDS_P2;PMS_P1;PMS_P2;Temp;Humidity;BMP_temperature;BMP_pressure;BME280_temperature;BME280_humidity;BME280_pressure;Samples;Min_cycle;Max_cycle;Signal;HPM_P1;HPM_P2
2023/04/12 00:01:48;;;;;;;2.90;0.80;;;9.90;99.90;;;;;;5062211;28;20114;-37
2023/04/12 00:04:15;;;;;;;6.57;1.30;;;9.90;99.90;;;;;;5061842;28;20044;-37
2023/04/12 00:06:47;;;;;;;4.88;0.95;;;9.80;99.90;;;;;;5066217;28;20067;-37
2023/04/12 00:09:14;;;;;;;5.40;0.88;;;9.80;99.90;;;;;;5066485;28;20046;-37
2023/04/12 00:11:40;;;;;;;3.28;0.80;;;9.90;99.90;;;;;;5062307;28;20496;-38
2023/04/12 00:14:06;;;;;;;5.88;1.27;;;9.80;99.90;;;;;;5064319;28;20055;-37
2023/04/12 00:16:32;;;;;;;4.95;0.93;;;9.90;99.90;;;;;;5060817;28;20059;-37
2023/04/12 00:18:58;;;;;;;3.05;0.77;;;9.90;99.90;;;;;;5057952;28;20556;-37
2023/04/12 00:21:27;;;;;;;4.60;0.77;;;9.90;99.90;;;;;;5059033;28;20045;-37
2023/04/12 00:23:53;;;;;;;5.85;0.98;;;9.90;99.90;;;;;;5064541;28;20441;-38
2023/04/12 00:26:20;;;;;;;5.22;1.00;;;9.90;99.90;;;;;;5064059;28;20616;-37
2023/04/12 00:28:46;;;;;;;6.50;1.27;;;9.90;99.90;;;;;;5066956;28;20127;-37
2023/04/12 00:31:12;;;;;;;5.30;1.00;;;9.90;99.90;;;;;;5065961;28;20160;-38
2023/04/12 00:33:37;;;;;;;5.03;0.80;;;9.90;99.90;;;;;;5064556;28;20122;-37
2023/04/12 00:36:04;;;;;;;9.02;1.73;;;9.80;99.90;;;;;;5065500;28;20118;-37
2023/04/12 00:38:30;;;;;;;4.82;0.90;;;9.80;99.90;;;;;;5061145;28;20044;-37
2023/04/12 00:40:55;;;;;;;6.75;0.90;;;9.80;99.90;;;;;;5063076;28;20049;-37
2023/04/12 00:43:22;;;;;;;5.05;2.05;;;9.70;99.90;;;;;;5063885;28;20396;-38
2023/04/12 00:45:48;;;;;;;3.20;0.85;;;9.70;99.90;;;;;;5065696;28;20506;-38
2023/04/12 00:48:17;;;;;;;3.40;0.60;;;9.70;99.90;;;;;;5062702;28;20632;-39
2023/04/12 00:50:43;;;;;;;6.30;0.80;;;9.70;99.90;;;;;;5057373;28;20052;-37
2023/04/12 00:53:12;;;;;;;4.45;0.60;;;9.60;99.90;;;;;;5062623;28;20051;-38
2023/04/12 00:55:40;;;;;;;5.82;1.10;;;9.60;99.90;;;;;;5066452;28;20056;-38
2023/04/12 00:58:06;;;;;;;4.85;0.80;;;9.60;99.90;;;;;;5064754;28;20098;-38
2023/04/12 01:00:33;;;;;;;2.40;0.68;;;9.50;99.90;;;;;;5066980;28;20438;-38
2023/04/12 01:03:01;;;;;;;5.70;0.65;;;9.50;99.90;;;;;;5063478;28;20106;-38
2023/04/12 01:05:27;;;;;;;3.88;0.80;;;9.30;99.90;;;;;;5067037;28;20520;-38
2023/04/12 01:08:34;;;;;;;5.20;1.02;;;9.40;99.90;;;;;;5048328;28;20147;-38
2023/04/12 01:11:10;;;;;;;4.07;0.85;;;9.30;99.90;;;;;;4961551;28;20050;-38
2023/04/12 01:13:54;;;;;;;2.78;0.73;;;9.30;99.90;;;;;;5054623;28;20056;-38
2023/04/12 01:16:49;;;;;;;4.18;1.08;;;9.30;99.90;;;;;;5065473;28;20087;-38
2023/04/12 01:19:32;;;;;;;4.28;0.70;;;9.20;99.90;;;;;;5061756;28;20087;-38
2023/04/12 01:22:17;;;;;;;5.18;1.10;;;9.20;99.90;;;;;;5063752;28;20049;-38
2023/04/12 01:25:03;;;;;;;5.85;1.20;;;9.20;99.90;;;;;;5060660;28;20541;-38
2023/04/12 01:27:45;;;;;;;3.78;0.75;;;9.20;99.90;;;;;;5060774;28;20045;-37
2023/04/12 01:30:14;;;;;;;3.17;0.93;;;9.20;99.90;;;;;;5059403;28;20074;-38
2023/04/12 01:32:44;;;;;;;4.45;1.08;;;9.20;99.90;;;;;;5062042;28;20981;-38
2023/04/12 01:35:10;;;;;;;4.80;0.85;;;9.10;99.90;;;;;;5062039;28;20044;-37
2023/04/12 01:37:36;;;;;;;2.88;0.80;;;9.10;99.90;;;;;;5064590;28;20131;-38
2023/04/12 01:40:05;;;;;;;5.20;0.95;;;9.10;99.90;;;;;;5061080;28;20454;-38
2023/04/12 01:42:34;;;;;;;4.43;1.08;;;9.10;99.90;;;;;;5059827;28;20056;-38
2023/04/12 01:45:00;;;;;;;4.32;1.63;;;9.00;99.90;;;;;;5053990;28;20076;-38
2023/04/12 01:47:26;;;;;;;4.93;1.25;;;9.00;99.90;;;;;;5057858;28;20091;-38
2023/04/12 01:50:10;;;;;;;5.15;1.30;;;9.00;99.90;;;;;;5060386;28;20076;-37
2023/04/12 01:52:40;;;;;;;5.30;1.00;;;9.00;99.90;;;;;;5061198;28;20443;-38
2023/04/12 01:55:08;;;;;;;3.13;1.00;;;9.00;99.90;;;;;;5056602;28;20561;-38
2023/04/12 01:57:36;;;;;;;4.43;0.57;;;9.00;99.90;;;;;;5061912;28;20106;-38
2023/04/12 02:00:05;;;;;;;4.63;1.15;;;8.90;99.90;;;;;;5061732;28;20071;-38
2023/04/12 02:02:31;;;;;;;3.85;0.77;;;8.90;99.90;;;;;;5063049;28;20052;-38
2023/04/12 02:04:59;;;;;;;4.63;1.08;;;8.80;99.90;;;;;;5061243;28;20049;-38
2023/04/12 02:07:24;;;;;;;6.90;2.45;;;8.90;99.90;;;;;;5061947;28;20091;-38
2023/04/12 02:09:50;;;;;;;3.40;0.80;;;8.80;99.90;;;;;;5063986;28;20477;-38
2023/04/12 02:12:16;;;;;;;2.92;0.50;;;8.80;99.90;;;;;;5057941;28;20065;-38
2023/04/12 02:14:41;;;;;;;4.30;0.80;;;8.80;99.90;;;;;;5045388;28;20048;-38
2023/04/12 02:17:07;;;;;;;3.30;0.70;;;8.80;99.90;;;;;;5042241;28;20110;-37
2023/04/12 02:19:33;;;;;;;5.18;0.75;;;8.80;99.90;;;;;;5060688;28;20137;-38
2023/04/12 02:21:58;;;;;;;4.82;1.00;;;8.80;99.90;;;;;;5061509;28;20395;-38
2023/04/12 02:24:24;;;;;;;5.28;0.90;;;8.80;99.90;;;;;;5063359;28;20052;-38
2023/04/12 02:26:49;;;;;;;4.53;0.75;;;8.70;99.90;;;;;;5056947;28;20044;-38
2023/04/12 02:29:16;;;;;;;3.75;0.65;;;8.70;99.90;;;;;;5064777;28;20047;-38
2023/04/12 02:31:42;;;;;;;4.10;0.82;;;8.70;99.90;;;;;;5063827;28;20059;-38
2023/04/12 02:34:07;;;;;;;3.47;0.80;;;8.70;99.90;;;;;;5063949;28;20410;-38
2023/04/12 02:36:36;;;;;;;2.58;0.60;;;8.70;99.90;;;;;;5056969;28;20036;-38
2023/04/12 02:39:02;;;;;;;5.30;0.65;;;8.70;99.90;;;;;;5061867;28;20036;-38
2023/04/12 02:41:28;;;;;;;4.18;0.70;;;8.70;99.90;;;;;;5057713;28;20068;-38
2023/04/12 02:43:54;;;;;;;5.60;0.90;;;8.70;99.90;;;;;;5067476;28;20114;-37
2023/04/12 02:46:23;;;;;;;6.20;1.00;;;8.70;99.90;;;;;;5064137;28;20083;-38
2023/04/12 02:48:49;;;;;;;7.13;1.08;;;8.60;99.90;;;;;;5066847;28;20474;-39
2023/04/12 02:51:15;;;;;;;4.95;1.23;;;8.70;99.90;;;;;;5064622;28;20048;-38
2023/04/12 02:53:41;;;;;;;9.48;1.20;;;8.60;99.90;;;;;;5061476;28;20415;-38
2023/04/12 02:56:07;;;;;;;2.30;0.70;;;8.60;99.90;;;;;;5041559;28;20044;-38
2023/04/12 02:58:34;;;;;;;2.90;0.80;;;8.60;99.90;;;;;;5045525;28;20080;-38
2023/04/12 03:01:00;;;;;;;3.42;0.65;;;8.60;99.90;;;;;;5063011;28;20052;-38
2023/04/12 03:03:27;;;;;;;2.72;0.60;;;8.60;99.90;;;;;;5061026;28;20055;-38
2023/04/12 03:05:53;;;;;;;4.50;1.52;;;8.60;99.90;;;;;;5061690;28;20056;-38
2023/04/12 03:08:20;;;;;;;3.75;0.70;;;8.60;99.90;;;;;;5065136;28;20156;-38
2023/04/12 03:10:46;;;;;;;4.97;1.33;;;8.60;99.90;;;;;;5062484;28;20052;-38
2023/04/12 03:13:12;;;;;;;2.67;1.25;;;8.60;99.90;;;;;;5061332;28;20490;-38
2023/04/12 03:15:39;;;;;;;3.30;0.55;;;8.60;99.90;;;;;;5064148;28;20041;-38
2023/04/12 03:18:05;;;;;;;4.15;0.57;;;8.60;99.90;;;;;;5062935;28;20473;-38
2023/04/12 03:20:30;;;;;;;3.03;0.50;;;8.60;99.90;;;;;;5065885;28;20139;-38
2023/04/12 03:22:56;;;;;;;1.63;0.43;;;8.70;99.90;;;;;;5062524;28;20140;-38
2023/04/12 03:25:21;;;;;;;4.30;0.80;;;8.60;99.90;;;;;;5063373;28;20060;-38
2023/04/12 03:27:47;;;;;;;5.68;0.68;;;8.60;99.90;;;;;;5066884;28;20498;-39
2023/04/12 03:30:13;;;;;;;4.18;0.73;;;8.60;99.90;;;;;;5064055;28;20040;-38
2023/04/12 03:32:42;;;;;;;3.65;0.50;;;8.60;99.90;;;;;;5062011;28;20044;-43
2023/04/12 03:35:09;;;;;;;2.13;0.60;;;8.60;99.90;;;;;;5064976;28;20064;-38
2023/04/12 03:37:34;;;;;;;6.85;1.00;;;8.60;99.90;;;;;;5062858;28;20045;-38
2023/04/12 03:40:01;;;;;;;1.52;0.63;;;8.60;99.90;;;;;;5064569;28;20090;-38
2023/04/12 03:42:29;;;;;;;6.07;0.70;;;8.60;99.90;;;;;;5063192;28;20048;-38
2023/04/12 03:44:55;;;;;;;3.90;1.02;;;8.60;99.90;;;;;;5067156;28;20098;-38
2023/04/12 03:47:21;;;;;;;3.63;0.80;;;8.60;99.90;;;;;;5059263;28;20060;-38
2023/04/12 03:49:47;;;;;;;4.90;0.90;;;8.60;99.90;;;;;;5058687;28;20449;-38
2023/04/12 03:52:13;;;;;;;5.05;0.80;;;8.60;99.90;;;;;;5062656;28;20148;-38
2023/04/12 03:54:39;;;;;;;4.32;0.85;;;8.60;99.90;;;;;;5066270;28;20048;-38
2023/04/12 03:57:04;;;;;;;2.03;0.60;;;8.60;99.90;;;;;;5071517;28;20070;-38
2023/04/12 03:59:31;;;;;;;1.85;0.45;;;8.60;99.90;;;;;;5064681;28;20510;-38
2023/04/12 04:01:58;;;;;;;3.28;0.85;;;8.50;99.90;;;;;;5067813;28;20068;-38
2023/04/12 04:04:26;;;;;;;2.03;0.50;;;8.60;99.90;;;;;;5067770;28;20475;-38
2023/04/12 04:06:52;;;;;;;3.40;0.80;;;8.50;99.90;;;;;;5069350;28;20144;-38
2023/04/12 04:09:18;;;;;;;5.47;0.90;;;8.50;99.90;;;;;;5064575;28;20115;-39
2023/04/12 04:11:45;;;;;;;5.75;0.95;;;8.50;99.90;;;;;;5062960;28;20071;-38
2023/04/12 04:14:11;;;;;;;6.55;0.80;;;8.50;99.90;;;;;;5061568;28;20490;-38
2023/04/12 04:16:37;;;;;;;5.43;1.00;;;8.50;99.90;;;;;;5060864;28;20099;-38
2023/04/12 04:19:03;;;;;;;6.32;1.05;;;8.50;99.90;;;;;;5058113;28;20487;-37
2023/04/12 04:21:31;;;;;;;3.75;1.10;;;8.50;99.90;;;;;;5057648;28;20037;-37
2023/04/12 04:24:01;;;;;;;4.75;1.00;;;8.40;99.90;;;;;;5042146;28;20143;-37
2023/04/12 04:26:32;;;;;;;6.28;1.80;;;8.40;99.90;;;;;;5065472;28;20154;-37
2023/04/12 04:29:02;;;;;;;5.45;1.15;;;8.40;99.90;;;;;;5063175;28;20506;-37
2023/04/12 04:31:33;;;;;;;4.68;1.75;;;8.40;99.90;;;;;;5061795;28;20055;-37
2023/04/12 04:34:05;;;;;;;4.45;1.40;;;8.40;99.90;;;;;;5062438;28;20415;-37
2023/04/12 04:36:33;;;;;;;8.68;1.63;;;8.30;99.90;;;;;;5066458;28;20093;-37
2023/04/12 04:39:00;;;;;;;5.78;1.70;;;8.30;99.90;;;;;;5062626;28;20187;-37
2023/04/12 04:41:25;;;;;;;4.82;1.88;;;8.30;99.90;;;;;;5061630;28;20049;-37
2023/04/12 04:43:52;;;;;;;6.78;2.60;;;8.30;99.90;;;;;;5067132;28;20067;-37
2023/04/12 04:46:20;;;;;;;6.93;2.45;;;8.20;99.90;;;;;;5067108;28;20452;-36
2023/04/12 04:48:50;;;;;;;7.60;2.65;;;8.20;99.90;;;;;;5063394;28;20087;-37
2023/04/12 04:51:17;;;;;;;9.52;2.67;;;8.20;99.90;;;;;;5064309;28;20084;-36
2023/04/12 04:53:43;;;;;;;6.05;2.50;;;8.20;99.90;;;;;;5065671;28;20106;-37
2023/04/12 04:56:09;;;;;;;7.75;3.65;;;8.30;99.90;;;;;;5061057;28;20485;-37
2023/04/12 04:58:35;;;;;;;8.95;3.78;;;8.20;99.90;;;;;;5060441;28;20408;-37
2023/04/12 05:01:00;;;;;;;11.05;3.97;;;8.10;99.90;;;;;;5043081;28;20387;-37
2023/04/12 05:03:29;;;;;;;11.30;3.92;;;8.20;99.90;;;;;;5058835;28;20464;-37
2023/04/12 05:05:55;;;;;;;7.68;4.05;;;8.10;99.90;;;;;;5067260;28;20057;-38
2023/04/12 05:08:21;;;;;;;10.68;3.75;;;8.10;99.90;;;;;;5063308;28;20522;-37
2023/04/12 05:10:51;;;;;;;7.55;4.30;;;8.10;99.90;;;;;;5063738;28;20504;-37
2023/04/12 05:13:18;;;;;;;7.25;3.05;;;8.10;99.90;;;;;;5044956;28;20048;-37
2023/04/12 05:15:44;;;;;;;10.50;3.70;;;8.10;99.90;;;;;;5066982;28;20510;-37
2023/04/12 05:18:09;;;;;;;6.88;3.13;;;8.10;99.90;;;;;;5054065;28;20059;-36
2023/04/12 05:20:37;;;;;;;6.10;3.08;;;8.10;99.90;;;;;;5058551;28;20068;-37
2023/04/12 05:23:03;;;;;;;6.82;3.40;;;8.10;99.90;;;;;;5065592;28;20110;-37
2023/04/12 05:25:29;;;;;;;7.43;3.30;;;8.10;99.90;;;;;;5062755;28;20486;-37
2023/04/12 05:27:54;;;;;;;5.90;2.72;;;8.10;99.90;;;;;;5060513;28;20052;-37
2023/04/12 05:30:20;;;;;;;9.50;3.17;;;8.10;99.90;;;;;;5058713;28;20127;-37
2023/04/12 05:32:46;;;;;;;8.05;2.60;;;8.10;99.90;;;;;;5066179;28;20502;-37
2023/04/12 05:35:11;;;;;;;4.75;2.03;;;8.10;99.90;;;;;;5062153;28;20056;-42
2023/04/12 05:37:37;;;;;;;7.88;2.72;;;8.10;99.90;;;;;;5050057;28;20040;-37
2023/04/12 05:40:06;;;;;;;5.25;2.10;;;8.10;99.90;;;;;;5062765;28;20044;-37
2023/04/12 05:42:31;;;;;;;5.53;2.45;;;8.00;99.90;;;;;;5063047;28;20055;-38
2023/04/12 05:44:57;;;;;;;7.53;2.83;;;8.00;99.90;;;;;;5061882;28;20044;-37
2023/04/12 05:47:23;;;;;;;4.88;2.10;;;8.10;99.90;;;;;;5061599;28;20407;-37
2023/04/12 05:49:48;;;;;;;7.28;3.28;;;8.00;99.90;;;;;;5062065;28;20837;-37
2023/04/12 05:52:14;;;;;;;4.00;1.75;;;8.00;99.90;;;;;;5059091;28;20068;-37
2023/04/12 05:54:40;;;;;;;4.65;1.98;;;8.00;99.90;;;;;;5064076;28;20044;-37
2023/04/12 05:57:06;;;;;;;7.75;2.20;;;8.10;99.90;;;;;;5063163;28;20056;-37
2023/04/12 05:59:32;;;;;;;6.90;2.28;;;8.00;99.90;;;;;;5064444;28;20052;-37
2023/04/12 06:01:58;;;;;;;6.05;2.47;;;8.00;99.90;;;;;;5066267;28;20066;-37
2023/04/12 06:04:25;;;;;;;4.72;2.50;;;8.00;99.90;;;;;;5063640;28;20074;-37
2023/04/12 06:06:50;;;;;;;3.92;2.00;;;8.00;99.90;;;;;;5060639;28;20060;-37
2023/04/12 06:09:16;;;;;;;5.30;2.25;;;8.00;99.90;;;;;;5063477;28;20055;-38
2023/04/12 06:11:42;;;;;;;4.85;2.20;;;8.00;99.90;;;;;;5067437;28;20047;-37
2023/04/12 06:14:07;;;;;;;4.03;2.35;;;8.00;99.90;;;;;;5066585;28;20127;-37
2023/04/12 06:16:33;;;;;;;5.03;2.80;;;8.00;99.90;;;;;;5065306;28;20041;-38
2023/04/12 06:18:58;;;;;;;5.30;2.65;;;8.00;99.90;;;;;;5064572;28;20200;-37
2023/04/12 06:21:24;;;;;;;5.05;2.55;;;8.00;99.90;;;;;;5066015;28;20059;-37
2023/04/12 06:23:50;;;;;;;7.25;2.80;;;8.00;99.90;;;;;;5065754;28;20422;-37
2023/04/12 06:26:15;;;;;;;6.38;3.15;;;8.10;99.90;;;;;;5065472;28;20060;-37
2023/04/12 06:28:41;;;;;;;4.15;2.17;;;8.10;99.90;;;;;;5068180;28;20057;-37
2023/04/12 06:31:07;;;;;;;6.10;1.83;;;8.10;99.90;;;;;;5070162;28;20056;-37
2023/04/12 06:33:32;;;;;;;5.13;2.60;;;8.10;99.90;;;;;;5068227;28;20059;-37
2023/04/12 06:35:59;;;;;;;6.95;2.70;;;8.10;99.90;;;;;;5068180;28;20076;-37
2023/04/12 06:38:24;;;;;;;6.95;2.95;;;8.10;99.90;;;;;;5065589;28;20055;-37
2023/04/12 06:40:51;;;;;;;4.53;2.40;;;8.10;99.90;;;;;;5064108;28;20044;-37
2023/04/12 06:43:21;;;;;;;5.20;2.40;;;8.10;99.90;;;;;;5068059;28;20052;-37
2023/04/12 06:45:48;;;;;;;6.10;3.25;;;8.10;99.90;;;;;;5063621;28;20052;-37
2023/04/12 06:48:14;;;;;;;7.28;2.45;;;8.10;99.90;;;;;;5068055;28;20106;-38
2023/04/12 06:50:40;;;;;;;4.40;2.38;;;8.10;99.90;;;;;;5066749;28;20052;-37
2023/04/12 06:53:06;;;;;;;5.30;2.75;;;8.10;99.90;;;;;;5067256;28;20048;-37
2023/04/12 06:55:32;;;;;;;4.30;2.35;;;8.20;99.90;;;;;;5069098;28;20067;-37
2023/04/12 06:57:57;;;;;;;4.68;2.78;;;8.10;99.90;;;;;;5049526;28;20067;-37
2023/04/12 07:00:23;;;;;;;5.07;2.92;;;8.10;99.90;;;;;;5064015;28;20111;-37
2023/04/12 07:02:49;;;;;;;4.85;2.60;;;8.10;99.90;;;;;;5067592;28;20083;-37
2023/04/12 07:05:14;;;;;;;5.50;2.90;;;8.20;99.90;;;;;;5067666;28;20079;-37
2023/04/12 07:07:40;;;;;;;6.07;3.03;;;8.20;99.90;;;;;;5066664;28;20044;-38
2023/04/12 07:10:06;;;;;;;5.50;2.38;;;8.10;99.90;;;;;;5059456;28;20077;-38
2023/04/12 07:12:32;;;;;;;5.35;2.53;;;8.10;99.90;;;;;;5064481;28;20045;-37
2023/04/12 07:14:58;;;;;;;5.63;2.67;;;8.10;99.90;;;;;;5068076;28;20047;-38
2023/04/12 07:17:25;;;;;;;4.88;3.00;;;8.10;99.90;;;;;;5068069;28;20052;-38
2023/04/12 07:19:55;;;;;;;6.55;2.97;;;8.20;99.90;;;;;;5066238;28;20056;-38
2023/04/12 07:22:20;;;;;;;4.78;2.83;;;8.10;99.90;;;;;;5060610;28;20060;-37
2023/04/12 07:24:48;;;;;;;5.88;2.70;;;8.20;99.90;;;;;;5053050;28;20053;-40
2023/04/12 07:27:14;;;;;;;5.78;3.10;;;8.20;99.90;;;;;;5060740;28;20048;-39
2023/04/12 07:29:40;;;;;;;4.30;2.60;;;8.20;99.90;;;;;;5062061;28;20048;-38
2023/04/12 07:32:07;;;;;;;4.55;2.85;;;8.20;99.90;;;;;;5063975;28;20114;-37
2023/04/12 07:34:32;;;;;;;5.65;3.00;;;8.20;99.90;;;;;;5062831;28;20052;-37
2023/04/12 07:36:59;;;;;;;5.28;2.63;;;8.20;99.90;;;;;;5062684;28;20117;-38
2023/04/12 07:39:26;;;;;;;3.92;2.78;;;8.30;99.90;;;;;;5067299;28;22188;-38
2023/04/12 07:41:51;;;;;;;5.43;3.20;;;8.30;99.90;;;;;;5060902;28;20107;-38
2023/04/12 07:44:17;;;;;;;5.78;3.10;;;8.30;99.90;;;;;;5060245;28;20068;-37
2023/04/12 07:46:43;;;;;;;5.32;2.85;;;8.30;99.90;;;;;;5063312;28;20124;-36
2023/04/12 07:49:09;;;;;;;4.95;2.70;;;8.30;99.90;;;;;;5048491;28;20044;-37
2023/04/12 07:51:35;;;;;;;6.03;2.90;;;8.30;99.90;;;;;;5067289;28;20550;-36
2023/04/12 07:54:01;;;;;;;5.32;3.17;;;8.30;99.90;;;;;;5070228;28;20540;-37
2023/04/12 07:56:27;;;;;;;5.65;3.50;;;8.40;99.90;;;;;;5066738;28;20127;-37
2023/04/12 07:58:53;;;;;;;6.40;3.10;;;8.40;99.90;;;;;;5069539;28;20132;-37
2023/04/12 08:01:18;;;;;;;5.65;2.65;;;8.50;99.90;;;;;;5068191;28;20047;-38
2023/04/12 08:03:44;;;;;;;5.82;2.60;;;8.50;99.90;;;;;;5071539;28;20147;-37
2023/04/12 08:06:09;;;;;;;7.05;3.03;;;8.50;99.90;;;;;;5068703;28;20044;-37
2023/04/12 08:08:35;;;;;;;4.88;2.80;;;8.50;99.90;;;;;;5062952;28;20048;-37
2023/04/12 08:11:03;;;;;;;4.13;2.58;;;8.50;99.90;;;;;;5065571;28;20070;-36
2023/04/12 08:13:29;;;;;;;4.88;2.83;;;8.50;99.90;;;;;;5069875;28;20057;-38
2023/04/12 08:15:55;;;;;;;5.60;3.08;;;8.50;99.90;;;;;;5068972;28;20734;-37
2023/04/12 08:18:20;;;;;;;5.95;2.90;;;8.50;99.90;;;;;;5066417;28;20048;-38
2023/04/12 08:20:48;;;;;;;6.18;3.10;;;8.50;99.90;;;;;;5068544;28;20061;-35
2023/04/12 08:23:14;;;;;;;4.32;2.28;;;8.60;99.90;;;;;;5064548;28;20056;-38
2023/04/12 08:25:40;;;;;;;5.50;2.40;;;8.60;99.90;;;;;;5064049;28;20045;-38
2023/04/12 08:28:07;;;;;;;3.80;2.10;;;8.60;99.90;;;;;;5065055;28;20052;-38
2023/04/12 08:30:33;;;;;;;3.15;1.70;;;8.60;99.90;;;;;;5056590;28;20055;-36
2023/04/12 08:32:59;;;;;;;5.43;2.17;;;8.70;99.90;;;;;;5046871;28;20110;-38
2023/04/12 08:35:24;;;;;;;5.03;1.83;;;8.70;99.90;;;;;;5059712;28;20052;-40
2023/04/12 08:37:51;;;;;;;3.97;1.80;;;8.70;99.90;;;;;;5061465;28;20056;-37
2023/04/12 08:40:17;;;;;;;3.08;1.20;;;8.70;99.90;;;;;;5057970;28;20049;-38
2023/04/12 08:42:43;;;;;;;4.10;1.60;;;8.80;99.90;;;;;;5060180;28;20071;-37
2023/04/12 08:45:10;;;;;;;3.53;1.40;;;8.80;99.90;;;;;;5057849;28;20048;-37
2023/04/12 08:47:38;;;;;;;2.78;1.30;;;8.80;99.90;;;;;;5062602;28;20399;-38
2023/04/12 08:50:08;;;;;;;3.17;1.40;;;8.90;99.90;;;;;;5067559;28;20056;-38
2023/04/12 08:52:34;;;;;;;2.30;1.20;;;8.90;99.90;;;;;;5067961;28;20605;-37
2023/04/12 08:55:07;;;;;;;4.32;1.20;;;9.00;99.90;;;;;;5066291;28;20490;-36
2023/04/12 08:57:34;;;;;;;2.92;1.75;;;9.00;99.90;;;;;;5063436;28;20064;-37
2023/04/12 09:00:02;;;;;;;5.47;1.63;;;9.00;99.90;;;;;;5065438;28;20055;-37
2023/04/12 09:02:28;;;;;;;2.30;1.30;;;9.10;99.90;;;;;;5059614;28;20468;-38
2023/04/12 09:04:54;;;;;;;2.70;1.48;;;9.20;99.90;;;;;;5062051;28;20049;-37
2023/04/12 09:07:26;;;;;;;3.38;1.40;;;9.30;99.90;;;;;;5065703;28;20099;-37
2023/04/12 09:09:52;;;;;;;4.07;1.60;;;9.30;99.90;;;;;;5064336;28;20044;-37
2023/04/12 09:12:21;;;;;;;2.83;1.50;;;9.40;99.90;;;;;;5060504;28;20053;-38
2023/04/12 09:14:46;;;;;;;3.70;1.40;;;9.40;99.90;;;;;;5065578;28;20556;-38
2023/04/12 09:17:22;;;;;;;3.35;1.35;;;9.40;99.90;;;;;;5062205;28;20052;-38
2023/04/12 09:19:48;;;;;;;4.25;1.80;;;9.40;99.90;;;;;;5066191;28;20056;-40
2023/04/12 09:22:13;;;;;;;5.00;1.65;;;9.40;99.90;;;;;;5062532;28;20469;-37
2023/04/12 09:24:52;;;;;;;5.03;1.52;;;9.50;99.90;;;;;;5062142;28;20040;-42
2023/04/12 09:27:20;;;;;;;4.35;1.77;;;9.60;99.90;;;;;;5065033;28;20049;-38
2023/04/12 09:29:50;;;;;;;4.10;1.40;;;9.70;99.90;;;;;;5062556;28;20052;-37
2023/04/12 09:32:25;;;;;;;8.88;2.38;;;9.80;99.90;;;;;;5064020;28;20510;-37
2023/04/12 09:35:04;;;;;;;4.50;1.67;;;10.00;99.90;;;;;;5061005;28;20049;-37
2023/04/12 09:37:30;;;;;;;6.63;1.50;;;10.20;99.90;;;;;;5061404;28;20044;-37
2023/04/12 09:40:01;;;;;;;3.58;1.10;;;10.40;99.90;;;;;;5034109;28;20053;-37
2023/04/12 09:42:28;;;;;;;6.50;1.63;;;10.60;99.90;;;;;;5061354;28;20463;-38
2023/04/12 09:44:55;;;;;;;2.58;1.10;;;10.70;99.90;;;;;;5060998;28;20082;-37
2023/04/12 09:47:21;;;;;;;7.88;2.22;;;10.80;99.90;;;;;;5061114;28;20045;-37
2023/04/12 09:49:47;;;;;;;6.82;1.95;;;10.90;99.90;;;;;;5056543;28;20064;-38
2023/04/12 09:52:13;;;;;;;6.63;2.20;;;10.90;99.90;;;;;;5063132;28;20051;-37
2023/04/12 09:54:44;;;;;;;7.53;2.05;;;11.10;99.90;;;;;;5061799;28;20036;-37
2023/04/12 09:57:11;;;;;;;9.02;2.33;;;11.20;99.90;;;;;;5057205;28;20083;-37
2023/04/12 09:59:39;;;;;;;5.80;1.50;;;11.20;99.90;;;;;;5061819;28;20076;-37
2023/04/12 10:02:15;;;;;;;9.63;1.60;;;11.40;99.90;;;;;;5066344;28;20091;-37
2023/04/12 10:04:41;;;;;;;14.63;2.97;;;11.50;99.90;;;;;;5061438;28;20045;-37
2023/04/12 10:07:07;;;;;;;9.32;1.80;;;11.60;99.90;;;;;;5059512;28;20568;-38
2023/04/12 10:09:34;;;;;;;8.23;1.67;;;11.70;99.90;;;;;;5063575;28;20052;-40
2023/04/12 10:12:02;;;;;;;9.30;1.60;;;11.90;99.90;;;;;;5067121;28;20056;-37
2023/04/12 10:14:28;;;;;;;8.57;1.50;;;12.20;99.90;;;;;;5053613;28;20111;-38
2023/04/12 10:16:58;;;;;;;8.73;1.08;;;12.30;99.90;;;;;;5064683;28;20056;-38
2023/04/12 10:19:26;;;;;;;6.18;1.55;;;12.50;99.90;;;;;;5060500;28;20507;-47
2023/04/12 10:21:52;;;;;;;10.85;2.00;;;12.60;99.90;;;;;;5061036;28;20183;-38
2023/04/12 10:24:21;;;;;;;8.32;1.40;;;12.60;99.90;;;;;;5060592;28;20482;-38
2023/04/12 10:26:49;;;;;;;14.05;1.40;;;12.70;99.90;;;;;;5056609;28;20060;-38
2023/04/12 10:29:22;;;;;;;7.43;2.03;;;12.50;99.90;;;;;;5054531;28;20491;-39
2023/04/12 10:31:49;;;;;;;7.88;1.20;;;12.50;99.90;;;;;;5031765;28;20049;-37
2023/04/12 10:34:15;;;;;;;16.02;2.70;;;12.40;99.90;;;;;;5059617;28;20082;-38
2023/04/12 10:36:56;;;;;;;7.80;1.20;;;12.40;99.90;;;;;;5062122;28;20056;-38
2023/04/12 10:39:54;;;;;;;7.40;1.35;;;12.40;99.90;;;;;;5060851;28;20107;-37
2023/04/12 10:42:23;;;;;;;5.68;1.60;;;12.50;99.90;;;;;;5016386;28;20719;-37
2023/04/12 10:44:51;;;;;;;6.95;1.38;;;12.50;99.90;;;;;;5058880;28;20098;-42
2023/04/12 10:47:48;;;;;;;5.97;1.20;;;12.50;99.90;;;;;;5058981;28;20068;-38
2023/04/12 10:50:25;;;;;;;7.15;1.08;;;12.50;99.90;;;;;;5056426;28;20064;-37
2023/04/12 10:53:12;;;;;;;9.35;1.80;;;12.50;99.90;;;;;;5059244;28;20048;-38
2023/04/12 10:55:43;;;;;;;13.43;1.73;;;12.60;99.90;;;;;;5054666;28;20198;-37
2023/04/12 10:58:09;;;;;;;7.25;1.00;;;12.70;99.90;;;;;;5058101;28;20041;-37
2023/04/12 11:00:57;;;;;;;9.40;1.90;;;12.70;99.90;;;;;;5038485;28;20518;-38
2023/04/12 11:03:23;;;;;;;7.15;1.30;;;12.70;99.90;;;;;;5051172;28;20145;-38
2023/04/12 11:06:04;;;;;;;6.32;1.25;;;12.70;99.90;;;;;;5062686;28;20051;-38
2023/04/12 11:08:31;;;;;;;3.53;0.75;;;12.60;99.90;;;;;;5057810;28;20044;-37
2023/04/12 11:11:16;;;;;;;10.70;1.40;;;12.70;99.90;;;;;;5057665;28;20056;-38
2023/04/12 11:13:43;;;;;;;9.55;1.92;;;12.80;99.90;;;;;;5060713;28;20117;-37
2023/04/12 11:16:11;;;;;;;6.72;0.93;;;12.80;99.90;;;;;;5060032;28;20049;-38
2023/04/12 11:18:37;;;;;;;10.52;0.93;;;12.70;99.90;;;;;;5059275;28;20052;-41
2023/04/12 11:21:04;;;;;;;5.30;1.17;;;12.70;99.90;;;;;;5058128;28;20068;-37
2023/04/12 11:23:31;;;;;;;6.55;1.00;;;12.60;99.90;;;;;;5058801;28;20049;-38
2023/04/12 11:25:57;;;;;;;9.85;1.15;;;12.60;99.90;;;;;;5062604;28;20542;-37
2023/04/12 11:28:24;;;;;;;7.03;1.02;;;12.60;99.90;;;;;;5061936;28;20154;-37
2023/04/12 11:30:54;;;;;;;6.07;1.25;;;12.60;99.90;;;;;;5069496;28;20376;-39
2023/04/12 11:33:40;;;;;;;9.23;0.93;;;12.70;99.90;;;;;;5065785;28;20064;-38
2023/04/12 11:36:13;;;;;;;6.65;1.05;;;12.70;99.90;;;;;;5066297;28;20052;-37
2023/04/12 11:38:39;;;;;;;10.98;1.25;;;12.70;99.90;;;;;;5064790;28;20056;-38
2023/04/12 11:41:07;;;;;;;6.18;0.88;;;12.60;99.90;;;;;;5066056;28;20044;-38
2023/04/12 11:43:37;;;;;;;6.32;1.52;;;12.70;99.90;;;;;;5065818;28;20044;-38
2023/04/12 11:46:03;;;;;;;8.52;1.00;;;12.70;99.90;;;;;;5063274;28;20048;-37
2023/04/12 11:48:29;;;;;;;14.25;1.05;;;12.60;99.90;;;;;;5061782;28;20521;-37
2023/04/12 11:50:56;;;;;;;10.75;1.20;;;12.60;99.90;;;;;;5066821;28;20067;-38
2023/04/12 11:53:29;;;;;;;8.95;1.00;;;12.50;99.90;;;;;;5045739;28;20048;-48
2023/04/12 11:55:57;;;;;;;7.65;1.15;;;12.50;99.90;;;;;;5063218;28;20052;-38
2023/04/12 11:58:27;;;;;;;8.43;1.50;;;12.60;99.90;;;;;;5065483;28;20412;-38
2023/04/12 12:00:55;;;;;;;8.38;1.10;;;12.70;99.90;;;;;;5062210;28;20052;-38
2023/04/12 12:03:21;;;;;;;10.40;1.40;;;12.90;99.90;;;;;;5040931;28;20052;-38
2023/04/12 12:05:47;;;;;;;7.18;1.27;;;12.90;99.90;;;;;;5060847;28;20163;-44
2023/04/12 12:08:13;;;;;;;9.88;2.28;;;12.90;99.90;;;;;;5063361;28;20063;-43
2023/04/12 12:10:39;;;;;;;6.15;1.00;;;12.90;99.90;;;;;;5071639;28;20052;-44
2023/04/12 12:13:14;;;;;;;11.43;1.00;;;12.80;99.90;;;;;;5067255;28;20048;-46
2023/04/12 12:15:46;;;;;;;8.95;1.38;;;12.80;99.90;;;;;;5065423;28;20060;-56
2023/04/12 12:18:12;;;;;;;7.18;1.10;;;12.80;99.90;;;;;;5063061;28;20476;-43
2023/04/12 12:20:40;;;;;;;7.38;1.17;;;12.90;99.90;;;;;;5064835;28;20078;-43
2023/04/12 12:23:06;;;;;;;8.27;1.73;;;12.90;99.90;;;;;;5048494;28;20528;-44
2023/04/12 12:25:32;;;;;;;9.82;0.90;;;13.00;99.90;;;;;;5062961;28;20162;-43
2023/04/12 12:27:58;;;;;;;9.05;0.70;;;13.10;99.90;;;;;;5038739;28;20056;-43
2023/04/12 12:30:24;;;;;;;8.00;1.35;;;13.20;99.90;;;;;;5060180;28;20057;-44
2023/04/12 12:32:53;;;;;;;6.03;1.13;;;13.10;99.90;;;;;;5063542;28;20511;-42
2023/04/12 12:35:18;;;;;;;14.32;1.27;;;13.00;99.90;;;;;;5064430;28;20078;-42
2023/04/12 12:37:52;;;;;;;9.70;1.40;;;12.90;99.90;;;;;;5063590;28;20133;-46
2023/04/12 12:40:20;;;;;;;9.23;1.20;;;12.80;99.90;;;;;;5063932;28;20073;-43
2023/04/12 12:42:55;;;;;;;6.50;1.25;;;12.70;99.90;;;;;;5063265;28;20057;-46
2023/04/12 12:45:23;;;;;;;6.25;1.20;;;12.60;99.90;;;;;;5065557;28;20044;-46
2023/04/12 12:47:58;;;;;;;9.85;1.08;;;12.60;99.90;;;;;;5063005;28;20053;-43
2023/04/12 12:50:31;;;;;;;7.75;1.15;;;12.50;99.90;;;;;;5058311;28;20522;-42
2023/04/12 12:52:59;;;;;;;13.38;0.90;;;12.40;99.90;;;;;;5062055;28;20090;-44
2023/04/12 12:55:26;;;;;;;9.70;1.92;;;12.40;99.90;;;;;;5065169;28;20076;-43
2023/04/12 12:57:54;;;;;;;8.13;0.95;;;12.40;99.90;;;;;;5065396;28;20648;-46